sensor_id;sensor_type;location;lat;lon;timestamp;P1;durP1;ratioP1;P2;durP2;ratioP2
29344;SDS011;16339;48.748;2.222;2022-10-22T00:01:25;10.18;;;1.90;;
29344;SDS011;16339;48.748;2.222;2022-10-22T00:03:54;11.35;;;2.00;;
29344;SDS011;16339;48.748;2.222;2022-10-22T00:06:22;12.07;;;2.15;;
29344;SDS011;16339;48.748;2.222;2022-10-22T00:08:51;14.48;;;1.92;;
29344;SDS011;16339;48.748;2.222;2022-10-22T00:11:22;6.55;;;1.95;;
29344;SDS011;16339;48.748;2.222;2022-10-22T00:13:52;7.18;;;2.20;;
29344;SDS011;16339;48.748;2.222;2022-10-22T00:16:20;8.85;;;2.00;;
29344;SDS011;16339;48.748;2.222;2022-10-22T00:18:49;10.32;;;2.25;;
29344;SDS011;16339;48.748;2.222;2022-10-22T00:21:18;9.23;;;2.13;;
29344;SDS011;16339;48.748;2.222;2022-10-22T00:23:46;12.32;;;2.20;;
29344;SDS011;16339;48.748;2.222;2022-10-22T00:26:16;7.20;;;1.98;;
29344;SDS011;16339;48.748;2.222;2022-10-22T00:28:47;16.35;;;2.40;;
29344;SDS011;16339;48.748;2.222;2022-10-22T00:31:16;13.63;;;2.50;;
29344;SDS011;16339;48.748;2.222;2022-10-22T00:33:48;5.13;;;1.65;;
29344;SDS011;16339;48.748;2.222;2022-10-22T00:36:17;7.65;;;1.80;;
29344;SDS011;16339;48.748;2.222;2022-10-22T00:38:45;5.28;;;2.00;;
29344;SDS011;16339;48.748;2.222;2022-10-22T00:41:15;11.07;;;1.90;;
29344;SDS011;16339;48.748;2.222;2022-10-22T00:43:58;9.20;;;2.33;;
29344;SDS011;16339;48.748;2.222;2022-10-22T00:46:28;7.70;;;1.77;;
29344;SDS011;16339;48.748;2.222;2022-10-22T00:48:57;10.55;;;2.22;;
29344;SDS011;16339;48.748;2.222;2022-10-22T00:51:31;10.23;;;2.08;;
29344;SDS011;16339;48.748;2.222;2022-10-22T00:54:03;16.95;;;2.35;;
29344;SDS011;16339;48.748;2.222;2022-10-22T00:56:33;8.65;;;1.75;;
29344;SDS011;16339;48.748;2.222;2022-10-22T00:59:05;11.27;;;2.08;;
29344;SDS011;16339;48.748;2.222;2022-10-22T01:01:35;9.73;;;2.15;;
29344;SDS011;16339;48.748;2.222;2022-10-22T01:04:04;7.75;;;1.70;;
29344;SDS011;16339;48.748;2.222;2022-10-22T01:06:33;20.80;;;2.20;;
29344;SDS011;16339;48.748;2.222;2022-10-22T01:09:04;12.38;;;1.92;;
29344;SDS011;16339;48.748;2.222;2022-10-22T01:11:46;8.30;;;1.75;;
29344;SDS011;16339;48.748;2.222;2022-10-22T01:14:26;8.07;;;2.25;;
29344;SDS011;16339;48.748;2.222;2022-10-22T01:17:00;11.13;;;2.10;;
29344;SDS011;16339;48.748;2.222;2022-10-22T01:19:46;12.73;;;1.95;;
29344;SDS011;16339;48.748;2.222;2022-10-22T01:22:24;12.50;;;2.05;;
29344;SDS011;16339;48.748;2.222;2022-10-22T01:24:57;12.18;;;2.13;;
29344;SDS011;16339;48.748;2.222;2022-10-22T01:27:34;9.68;;;1.85;;
29344;SDS011;16339;48.748;2.222;2022-10-22T01:30:13;8.93;;;2.05;;
29344;SDS011;16339;48.748;2.222;2022-10-22T01:32:45;12.63;;;2.13;;
29344;SDS011;16339;48.748;2.222;2022-10-22T01:35:18;10.20;;;1.70;;
29344;SDS011;16339;48.748;2.222;2022-10-22T01:37:51;12.43;;;1.98;;
29344;SDS011;16339;48.748;2.222;2022-10-22T01:40:22;9.45;;;1.80;;
29344;SDS011;16339;48.748;2.222;2022-10-22T01:42:55;11.57;;;2.15;;
29344;SDS011;16339;48.748;2.222;2022-10-22T01:45:27;11.07;;;2.00;;
29344;SDS011;16339;48.748;2.222;2022-10-22T01:48:04;10.43;;;2.00;;
29344;SDS011;16339;48.748;2.222;2022-10-22T01:50:43;13.13;;;2.05;;
29344;SDS011;16339;48.748;2.222;2022-10-22T01:53:24;17.77;;;2.28;;
29344;SDS011;16339;48.748;2.222;2022-10-22T01:56:03;11.52;;;1.90;;
29344;SDS011;16339;48.748;2.222;2022-10-22T01:58:41;10.18;;;2.05;;
29344;SDS011;16339;48.748;2.222;2022-10-22T02:01:22;8.15;;;1.73;;
29344;SDS011;16339;48.748;2.222;2022-10-22T02:03:59;16.13;;;2.00;;
29344;SDS011;16339;48.748;2.222;2022-10-22T02:06:32;11.05;;;1.83;;
29344;SDS011;16339;48.748;2.222;2022-10-22T02:09:03;15.80;;;2.53;;
29344;SDS011;16339;48.748;2.222;2022-10-22T02:11:33;13.38;;;2.03;;
29344;SDS011;16339;48.748;2.222;2022-10-22T02:14:02;9.73;;;2.53;;
29344;SDS011;16339;48.748;2.222;2022-10-22T02:16:37;7.68;;;2.05;;
29344;SDS011;16339;48.748;2.222;2022-10-22T02:19:11;12.45;;;2.40;;
29344;SDS011;16339;48.748;2.222;2022-10-22T02:21:46;14.15;;;2.10;;
29344;SDS011;16339;48.748;2.222;2022-10-22T02:24:15;7.47;;;2.15;;
29344;SDS011;16339;48.748;2.222;2022-10-22T02:26:45;14.82;;;2.13;;
29344;SDS011;16339;48.748;2.222;2022-10-22T02:29:19;11.93;;;1.70;;
29344;SDS011;16339;48.748;2.222;2022-10-22T02:31:55;9.48;;;2.10;;
29344;SDS011;16339;48.748;2.222;2022-10-22T02:34:28;13.25;;;1.92;;
29344;SDS011;16339;48.748;2.222;2022-10-22T02:36:59;12.60;;;1.95;;
29344;SDS011;16339;48.748;2.222;2022-10-22T02:39:29;17.88;;;2.33;;
29344;SDS011;16339;48.748;2.222;2022-10-22T02:41:59;19.20;;;2.95;;
29344;SDS011;16339;48.748;2.222;2022-10-22T02:44:28;11.90;;;1.80;;
29344;SDS011;16339;48.748;2.222;2022-10-22T02:47:00;10.30;;;2.38;;
29344;SDS011;16339;48.748;2.222;2022-10-22T02:49:28;12.82;;;2.58;;
29344;SDS011;16339;48.748;2.222;2022-10-22T02:51:57;11.80;;;2.22;;
29344;SDS011;16339;48.748;2.222;2022-10-22T02:54:26;10.23;;;2.05;;
29344;SDS011;16339;48.748;2.222;2022-10-22T02:56:54;13.65;;;2.10;;
29344;SDS011;16339;48.748;2.222;2022-10-22T02:59:23;11.48;;;2.40;;
29344;SDS011;16339;48.748;2.222;2022-10-22T03:01:52;21.52;;;2.70;;
29344;SDS011;16339;48.748;2.222;2022-10-22T03:04:23;9.55;;;2.40;;
29344;SDS011;16339;48.748;2.222;2022-10-22T03:06:52;18.05;;;2.90;;
29344;SDS011;16339;48.748;2.222;2022-10-22T03:09:20;11.73;;;2.20;;
29344;SDS011;16339;48.748;2.222;2022-10-22T03:11:49;12.32;;;2.30;;
29344;SDS011;16339;48.748;2.222;2022-10-22T03:14:18;8.70;;;2.10;;
29344;SDS011;16339;48.748;2.222;2022-10-22T03:16:47;15.15;;;2.22;;
29344;SDS011;16339;48.748;2.222;2022-10-22T03:19:16;12.95;;;1.90;;
29344;SDS011;16339;48.748;2.222;2022-10-22T03:21:48;9.25;;;1.90;;
29344;SDS011;16339;48.748;2.222;2022-10-22T03:24:21;11.27;;;2.17;;
29344;SDS011;16339;48.748;2.222;2022-10-22T03:26:52;13.90;;;2.33;;
29344;SDS011;16339;48.748;2.222;2022-10-22T03:29:22;9.20;;;2.15;;
29344;SDS011;16339;48.748;2.222;2022-10-22T03:31:53;18.90;;;2.40;;
29344;SDS011;16339;48.748;2.222;2022-10-22T03:34:21;15.85;;;2.10;;
29344;SDS011;16339;48.748;2.222;2022-10-22T03:36:53;18.65;;;2.55;;
29344;SDS011;16339;48.748;2.222;2022-10-22T03:39:24;8.13;;;1.60;;
29344;SDS011;16339;48.748;2.222;2022-10-22T03:41:55;15.32;;;2.67;;
29344;SDS011;16339;48.748;2.222;2022-10-22T03:44:24;13.18;;;2.00;;
29344;SDS011;16339;48.748;2.222;2022-10-22T03:46:54;14.27;;;2.08;;
29344;SDS011;16339;48.748;2.222;2022-10-22T03:49:22;11.20;;;1.77;;
29344;SDS011;16339;48.748;2.222;2022-10-22T03:51:54;17.33;;;2.22;;
29344;SDS011;16339;48.748;2.222;2022-10-22T03:54:22;12.82;;;1.77;;
29344;SDS011;16339;48.748;2.222;2022-10-22T03:56:51;12.77;;;2.38;;
29344;SDS011;16339;48.748;2.222;2022-10-22T03:59:20;15.48;;;2.17;;
29344;SDS011;16339;48.748;2.222;2022-10-22T04:01:48;10.32;;;1.80;;
29344;SDS011;16339;48.748;2.222;2022-10-22T04:04:17;15.10;;;2.20;;
29344;SDS011;16339;48.748;2.222;2022-10-22T04:06:46;11.98;;;1.80;;
29344;SDS011;16339;48.748;2.222;2022-10-22T04:09:17;16.33;;;2.13;;
29344;SDS011;16339;48.748;2.222;2022-10-22T04:11:46;11.38;;;2.10;;
29344;SDS011;16339;48.748;2.222;2022-10-22T04:14:14;12.30;;;2.63;;
29344;SDS011;16339;48.748;2.222;2022-10-22T04:16:43;19.08;;;3.55;;
29344;SDS011;16339;48.748;2.222;2022-10-22T04:19:12;14.13;;;2.00;;
29344;SDS011;16339;48.748;2.222;2022-10-22T04:21:41;9.68;;;2.00;;
29344;SDS011;16339;48.748;2.222;2022-10-22T04:24:10;10.43;;;2.50;;
29344;SDS011;16339;48.748;2.222;2022-10-22T04:26:41;15.98;;;2.13;;
29344;SDS011;16339;48.748;2.222;2022-10-22T04:31:39;16.17;;;2.40;;
29344;SDS011;16339;48.748;2.222;2022-10-22T04:34:08;15.73;;;2.03;;
29344;SDS011;16339;48.748;2.222;2022-10-22T04:36:36;13.27;;;1.85;;
29344;SDS011;16339;48.748;2.222;2022-10-22T04:39:05;14.90;;;2.45;;
29344;SDS011;16339;48.748;2.222;2022-10-22T04:41:35;10.43;;;2.55;;
29344;SDS011;16339;48.748;2.222;2022-10-22T04:44:07;7.85;;;1.80;;
29344;SDS011;16339;48.748;2.222;2022-10-22T04:49:04;16.83;;;2.63;;
29344;SDS011;16339;48.748;2.222;2022-10-22T04:51:33;9.13;;;2.22;;
29344;SDS011;16339;48.748;2.222;2022-10-22T04:54:02;22.60;;;3.55;;
29344;SDS011;16339;48.748;2.222;2022-10-22T04:56:31;7.88;;;2.25;;
29344;SDS011;16339;48.748;2.222;2022-10-22T04:59:01;13.68;;;2.40;;
29344;SDS011;16339;48.748;2.222;2022-10-22T05:01:34;18.63;;;2.78;;
29344;SDS011;16339;48.748;2.222;2022-10-22T05:04:05;14.88;;;2.55;;
29344;SDS011;16339;48.748;2.222;2022-10-22T05:06:35;27.73;;;2.67;;
29344;SDS011;16339;48.748;2.222;2022-10-22T05:09:05;13.85;;;2.22;;
29344;SDS011;16339;48.748;2.222;2022-10-22T05:11:36;13.40;;;3.17;;
29344;SDS011;16339;48.748;2.222;2022-10-22T05:14:06;13.80;;;3.17;;
29344;SDS011;16339;48.748;2.222;2022-10-22T05:16:38;12.00;;;2.40;;
29344;SDS011;16339;48.748;2.222;2022-10-22T05:19:07;11.45;;;3.05;;
29344;SDS011;16339;48.748;2.222;2022-10-22T05:21:41;16.13;;;3.50;;
29344;SDS011;16339;48.748;2.222;2022-10-22T05:24:10;16.48;;;3.95;;
29344;SDS011;16339;48.748;2.222;2022-10-22T05:26:39;21.35;;;3.85;;
29344;SDS011;16339;48.748;2.222;2022-10-22T05:29:08;14.63;;;2.70;;
29344;SDS011;16339;48.748;2.222;2022-10-22T05:31:39;15.05;;;3.03;;
29344;SDS011;16339;48.748;2.222;2022-10-22T05:34:08;10.55;;;2.78;;
29344;SDS011;16339;48.748;2.222;2022-10-22T05:36:37;21.70;;;3.80;;
29344;SDS011;16339;48.748;2.222;2022-10-22T05:39:05;15.30;;;3.30;;
29344;SDS011;16339;48.748;2.222;2022-10-22T05:41:34;16.33;;;3.85;;
29344;SDS011;16339;48.748;2.222;2022-10-22T05:44:04;24.90;;;3.55;;
29344;SDS011;16339;48.748;2.222;2022-10-22T05:46:33;14.57;;;2.55;;
29344;SDS011;16339;48.748;2.222;2022-10-22T05:49:05;22.40;;;2.90;;
29344;SDS011;16339;48.748;2.222;2022-10-22T05:51:35;14.68;;;2.90;;
29344;SDS011;16339;48.748;2.222;2022-10-22T05:54:05;17.48;;;3.03;;
29344;SDS011;16339;48.748;2.222;2022-10-22T05:56:37;12.35;;;3.15;;
29344;SDS011;16339;48.748;2.222;2022-10-22T05:59:05;8.93;;;3.00;;
29344;SDS011;16339;48.748;2.222;2022-10-22T06:01:34;16.20;;;2.85;;
29344;SDS011;16339;48.748;2.222;2022-10-22T06:04:06;13.23;;;2.72;;
29344;SDS011;16339;48.748;2.222;2022-10-22T06:06:38;13.80;;;2.42;;
29344;SDS011;16339;48.748;2.222;2022-10-22T06:09:10;23.77;;;2.78;;
29344;SDS011;16339;48.748;2.222;2022-10-22T06:11:42;13.50;;;2.50;;
29344;SDS011;16339;48.748;2.222;2022-10-22T06:14:12;21.00;;;2.65;;
29344;SDS011;16339;48.748;2.222;2022-10-22T06:16:41;22.38;;;2.42;;
29344;SDS011;16339;48.748;2.222;2022-10-22T06:19:13;18.75;;;2.60;;
29344;SDS011;16339;48.748;2.222;2022-10-22T06:21:43;16.27;;;2.47;;
29344;SDS011;16339;48.748;2.222;2022-10-22T06:24:12;10.50;;;2.22;;
29344;SDS011;16339;48.748;2.222;2022-10-22T06:26:41;14.57;;;2.17;;
29344;SDS011;16339;48.748;2.222;2022-10-22T06:29:10;15.23;;;2.45;;
29344;SDS011;16339;48.748;2.222;2022-10-22T06:31:38;12.95;;;2.88;;
29344;SDS011;16339;48.748;2.222;2022-10-22T06:34:10;16.25;;;3.38;;
29344;SDS011;16339;48.748;2.222;2022-10-22T06:36:43;14.60;;;2.53;;
29344;SDS011;16339;48.748;2.222;2022-10-22T06:39:13;24.05;;;3.53;;
29344;SDS011;16339;48.748;2.222;2022-10-22T06:41:42;14.35;;;3.10;;
29344;SDS011;16339;48.748;2.222;2022-10-22T06:44:12;13.43;;;3.00;;
29344;SDS011;16339;48.748;2.222;2022-10-22T06:46:42;13.32;;;3.47;;
29344;SDS011;16339;48.748;2.222;2022-10-22T06:49:11;10.00;;;2.60;;
29344;SDS011;16339;48.748;2.222;2022-10-22T06:51:43;15.57;;;2.75;;
29344;SDS011;16339;48.748;2.222;2022-10-22T06:54:12;11.82;;;2.67;;
29344;SDS011;16339;48.748;2.222;2022-10-22T06:56:41;18.85;;;2.53;;
29344;SDS011;16339;48.748;2.222;2022-10-22T06:59:09;15.15;;;2.58;;
29344;SDS011;16339;48.748;2.222;2022-10-22T07:01:38;11.18;;;2.80;;
29344;SDS011;16339;48.748;2.222;2022-10-22T07:04:08;17.80;;;4.15;;
29344;SDS011;16339;48.748;2.222;2022-10-22T07:06:40;18.42;;;3.78;;
29344;SDS011;16339;48.748;2.222;2022-10-22T07:09:08;20.30;;;2.72;;
29344;SDS011;16339;48.748;2.222;2022-10-22T07:11:39;20.77;;;3.58;;
29344;SDS011;16339;48.748;2.222;2022-10-22T07:14:08;20.85;;;3.08;;
29344;SDS011;16339;48.748;2.222;2022-10-22T07:16:37;19.63;;;2.95;;
29344;SDS011;16339;48.748;2.222;2022-10-22T07:19:07;13.25;;;2.78;;
29344;SDS011;16339;48.748;2.222;2022-10-22T07:21:36;15.70;;;3.03;;
29344;SDS011;16339;48.748;2.222;2022-10-22T07:24:07;23.85;;;3.50;;
29344;SDS011;16339;48.748;2.222;2022-10-22T07:26:36;7.97;;;3.00;;
29344;SDS011;16339;48.748;2.222;2022-10-22T07:29:05;11.43;;;2.90;;
29344;SDS011;16339;48.748;2.222;2022-10-22T07:31:34;14.27;;;2.78;;
29344;SDS011;16339;48.748;2.222;2022-10-22T07:34:03;18.88;;;3.00;;
29344;SDS011;16339;48.748;2.222;2022-10-22T07:36:32;15.07;;;3.30;;
29344;SDS011;16339;48.748;2.222;2022-10-22T07:39:01;17.38;;;3.38;;
29344;SDS011;16339;48.748;2.222;2022-10-22T07:41:33;13.75;;;3.15;;
29344;SDS011;16339;48.748;2.222;2022-10-22T07:44:02;15.23;;;3.15;;
29344;SDS011;16339;48.748;2.222;2022-10-22T07:46:31;17.67;;;2.80;;
29344;SDS011;16339;48.748;2.222;2022-10-22T07:48:59;12.77;;;2.88;;
29344;SDS011;16339;48.748;2.222;2022-10-22T07:51:28;12.85;;;2.42;;
29344;SDS011;16339;48.748;2.222;2022-10-22T07:53:57;21.02;;;2.92;;
29344;SDS011;16339;48.748;2.222;2022-10-22T07:56:25;18.83;;;2.97;;
29344;SDS011;16339;48.748;2.222;2022-10-22T07:58:57;15.38;;;2.95;;
29344;SDS011;16339;48.748;2.222;2022-10-22T08:01:25;7.75;;;2.25;;
29344;SDS011;16339;48.748;2.222;2022-10-22T08:03:54;12.80;;;2.50;;
29344;SDS011;16339;48.748;2.222;2022-10-22T08:06:23;9.38;;;2.40;;
29344;SDS011;16339;48.748;2.222;2022-10-22T08:08:51;15.98;;;2.67;;
29344;SDS011;16339;48.748;2.222;2022-10-22T08:11:20;13.88;;;2.10;;
29344;SDS011;16339;48.748;2.222;2022-10-22T08:13:49;18.95;;;2.40;;
29344;SDS011;16339;48.748;2.222;2022-10-22T08:16:24;8.98;;;2.13;;
29344;SDS011;16339;48.748;2.222;2022-10-22T08:18:52;14.25;;;2.28;;
29344;SDS011;16339;48.748;2.222;2022-10-22T08:21:21;8.00;;;2.05;;
29344;SDS011;16339;48.748;2.222;2022-10-22T08:23:50;8.07;;;1.77;;
29344;SDS011;16339;48.748;2.222;2022-10-22T08:26:19;14.13;;;1.67;;
29344;SDS011;16339;48.748;2.222;2022-10-22T08:28:48;14.45;;;2.35;;
29344;SDS011;16339;48.748;2.222;2022-10-22T08:31:16;13.57;;;2.28;;
29344;SDS011;16339;48.748;2.222;2022-10-22T08:33:48;10.82;;;2.10;;
29344;SDS011;16339;48.748;2.222;2022-10-22T08:36:17;15.85;;;2.20;;
29344;SDS011;16339;48.748;2.222;2022-10-22T08:38:45;16.20;;;2.00;;
29344;SDS011;16339;48.748;2.222;2022-10-22T08:41:15;8.13;;;1.88;;
29344;SDS011;16339;48.748;2.222;2022-10-22T08:49:44;12.13;;;2.40;;
29344;SDS011;16339;48.748;2.222;2022-10-22T08:52:14;17.15;;;2.25;;
29344;SDS011;16339;48.748;2.222;2022-10-22T08:54:47;10.93;;;2.00;;
29344;SDS011;16339;48.748;2.222;2022-10-22T08:57:25;8.13;;;1.85;;
29344;SDS011;16339;48.748;2.222;2022-10-22T09:00:10;13.32;;;1.83;;
29344;SDS011;16339;48.748;2.222;2022-10-22T09:02:45;17.92;;;2.00;;
29344;SDS011;16339;48.748;2.222;2022-10-22T09:05:27;12.45;;;2.05;;
29344;SDS011;16339;48.748;2.222;2022-10-22T09:08:07;14.95;;;2.45;;
29344;SDS011;16339;48.748;2.222;2022-10-22T09:10:39;12.75;;;2.30;;
29344;SDS011;16339;48.748;2.222;2022-10-22T09:13:10;13.82;;;2.15;;
29344;SDS011;16339;48.748;2.222;2022-10-22T09:15:43;13.60;;;2.17;;
29344;SDS011;16339;48.748;2.222;2022-10-22T09:18:19;10.73;;;1.90;;
29344;SDS011;16339;48.748;2.222;2022-10-22T09:20:53;10.00;;;3.03;;
29344;SDS011;16339;48.748;2.222;2022-10-22T09:23:29;11.00;;;2.55;;
29344;SDS011;16339;48.748;2.222;2022-10-22T09:26:07;14.23;;;2.45;;
29344;SDS011;16339;48.748;2.222;2022-10-22T09:28:40;17.33;;;2.33;;
29344;SDS011;16339;48.748;2.222;2022-10-22T09:31:09;12.90;;;2.25;;
29344;SDS011;16339;48.748;2.222;2022-10-22T09:33:42;19.38;;;2.28;;
29344;SDS011;16339;48.748;2.222;2022-10-22T09:36:14;14.15;;;2.50;;
29344;SDS011;16339;48.748;2.222;2022-10-22T09:38:45;15.05;;;2.42;;
29344;SDS011;16339;48.748;2.222;2022-10-22T09:41:16;10.63;;;2.20;;
29344;SDS011;16339;48.748;2.222;2022-10-22T09:43:49;11.85;;;1.88;;
29344;SDS011;16339;48.748;2.222;2022-10-22T09:46:19;21.33;;;2.42;;
29344;SDS011;16339;48.748;2.222;2022-10-22T09:48:55;18.45;;;2.58;;
29344;SDS011;16339;48.748;2.222;2022-10-22T09:51:40;9.75;;;1.90;;
29344;SDS011;16339;48.748;2.222;2022-10-22T09:54:16;9.18;;;2.40;;
29344;SDS011;16339;48.748;2.222;2022-10-22T09:56:49;13.00;;;2.00;;
29344;SDS011;16339;48.748;2.222;2022-10-22T09:59:26;9.95;;;1.80;;
29344;SDS011;16339;48.748;2.222;2022-10-22T10:02:00;11.75;;;1.90;;
29344;SDS011;16339;48.748;2.222;2022-10-22T10:07:17;17.13;;;2.35;;
29344;SDS011;16339;48.748;2.222;2022-10-22T10:09:51;17.85;;;2.15;;
29344;SDS011;16339;48.748;2.222;2022-10-22T10:12:25;14.82;;;2.33;;
29344;SDS011;16339;48.748;2.222;2022-10-22T10:15:02;16.73;;;2.75;;
29344;SDS011;16339;48.748;2.222;2022-10-22T10:17:42;13.13;;;2.45;;
29344;SDS011;16339;48.748;2.222;2022-10-22T10:20:25;8.55;;;1.98;;
29344;SDS011;16339;48.748;2.222;2022-10-22T10:23:02;12.18;;;2.10;;
29344;SDS011;16339;48.748;2.222;2022-10-22T10:25:41;14.18;;;2.22;;
29344;SDS011;16339;48.748;2.222;2022-10-22T10:28:20;20.25;;;2.80;;
29344;SDS011;16339;48.748;2.222;2022-10-22T10:30:58;10.48;;;1.98;;
29344;SDS011;16339;48.748;2.222;2022-10-22T10:33:37;11.57;;;2.03;;
29344;SDS011;16339;48.748;2.222;2022-10-22T10:36:24;12.63;;;2.00;;
29344;SDS011;16339;48.748;2.222;2022-10-22T10:39:00;15.23;;;2.05;;
29344;SDS011;16339;48.748;2.222;2022-10-22T10:41:34;13.02;;;1.95;;
29344;SDS011;16339;48.748;2.222;2022-10-22T10:47:07;13.02;;;2.13;;
29344;SDS011;16339;48.748;2.222;2022-10-22T10:49:46;17.55;;;2.70;;
29344;SDS011;16339;48.748;2.222;2022-10-22T10:52:19;9.25;;;1.60;;
29344;SDS011;16339;48.748;2.222;2022-10-22T10:54:54;19.98;;;2.13;;
29344;SDS011;16339;48.748;2.222;2022-10-22T10:57:35;18.17;;;2.20;;
29344;SDS011;16339;48.748;2.222;2022-10-22T11:00:08;9.02;;;1.50;;
29344;SDS011;16339;48.748;2.222;2022-10-22T11:02:51;14.80;;;2.28;;
29344;SDS011;16339;48.748;2.222;2022-10-22T11:05:38;9.15;;;1.50;;
29344;SDS011;16339;48.748;2.222;2022-10-22T11:08:15;13.95;;;1.98;;
29344;SDS011;16339;48.748;2.222;2022-10-22T11:10:48;13.90;;;2.10;;
29344;SDS011;16339;48.748;2.222;2022-10-22T11:13:21;12.45;;;1.90;;
29344;SDS011;16339;48.748;2.222;2022-10-22T11:16:00;9.85;;;2.03;;
29344;SDS011;16339;48.748;2.222;2022-10-22T11:18:33;14.73;;;1.88;;
29344;SDS011;16339;48.748;2.222;2022-10-22T11:21:10;12.27;;;1.90;;
29344;SDS011;16339;48.748;2.222;2022-10-22T11:23:48;11.38;;;1.77;;
29344;SDS011;16339;48.748;2.222;2022-10-22T11:26:26;11.15;;;1.85;;
29344;SDS011;16339;48.748;2.222;2022-10-22T11:29:03;13.48;;;2.08;;
29344;SDS011;16339;48.748;2.222;2022-10-22T11:31:36;7.68;;;1.40;;
29344;SDS011;16339;48.748;2.222;2022-10-22T11:34:11;5.03;;;1.48;;
29344;SDS011;16339;48.748;2.222;2022-10-22T11:36:46;6.45;;;1.60;;
29344;SDS011;16339;48.748;2.222;2022-10-22T11:39:32;13.70;;;1.90;;
29344;SDS011;16339;48.748;2.222;2022-10-22T11:42:08;7.57;;;1.45;;
29344;SDS011;16339;48.748;2.222;2022-10-22T11:44:45;12.30;;;1.80;;
29344;SDS011;16339;48.748;2.222;2022-10-22T11:47:26;3.92;;;1.20;;
29344;SDS011;16339;48.748;2.222;2022-10-22T11:50:01;9.43;;;1.50;;
29344;SDS011;16339;48.748;2.222;2022-10-22T11:52:49;10.45;;;1.73;;
29344;SDS011;16339;48.748;2.222;2022-10-22T11:55:40;7.45;;;1.23;;
29344;SDS011;16339;48.748;2.222;2022-10-22T11:58:26;4.30;;;1.30;;
29344;SDS011;16339;48.748;2.222;2022-10-22T12:01:17;7.57;;;1.20;;
29344;SDS011;16339;48.748;2.222;2022-10-22T12:03:51;6.93;;;1.33;;
29344;SDS011;16339;48.748;2.222;2022-10-22T12:06:54;8.88;;;1.58;;
29344;SDS011;16339;48.748;2.222;2022-10-22T12:09:25;9.38;;;1.30;;
29344;SDS011;16339;48.748;2.222;2022-10-22T12:12:03;9.48;;;1.73;;
29344;SDS011;16339;48.748;2.222;2022-10-22T12:14:50;4.07;;;0.95;;
29344;SDS011;16339;48.748;2.222;2022-10-22T18:19:21;14.13;;;3.60;;
29344;SDS011;16339;48.748;2.222;2022-10-22T18:24:18;17.02;;;3.65;;
29344;SDS011;16339;48.748;2.222;2022-10-22T18:26:47;11.68;;;3.40;;
29344;SDS011;16339;48.748;2.222;2022-10-22T18:29:17;10.40;;;3.72;;
29344;SDS011;16339;48.748;2.222;2022-10-22T18:31:46;16.17;;;3.92;;
29344;SDS011;16339;48.748;2.222;2022-10-22T18:34:16;11.50;;;3.88;;
29344;SDS011;16339;48.748;2.222;2022-10-22T18:36:48;9.90;;;3.35;;
29344;SDS011;16339;48.748;2.222;2022-10-22T18:41:45;11.82;;;3.65;;
29344;SDS011;16339;48.748;2.222;2022-10-22T18:44:14;10.15;;;3.40;;
29344;SDS011;16339;48.748;2.222;2022-10-22T18:46:43;9.20;;;3.58;;
29344;SDS011;16339;48.748;2.222;2022-10-22T18:49:13;13.32;;;4.15;;
29344;SDS011;16339;48.748;2.222;2022-10-22T18:51:45;14.93;;;6.57;;
29344;SDS011;16339;48.748;2.222;2022-10-22T18:54:17;17.88;;;7.10;;
29344;SDS011;16339;48.748;2.222;2022-10-22T18:59:20;13.80;;;4.20;;
29344;SDS011;16339;48.748;2.222;2022-10-22T19:01:50;18.23;;;4.13;;
29344;SDS011;16339;48.748;2.222;2022-10-22T19:04:20;9.73;;;3.85;;
29344;SDS011;16339;48.748;2.222;2022-10-22T19:06:51;14.10;;;3.90;;
29344;SDS011;16339;48.748;2.222;2022-10-22T19:09:23;15.40;;;4.45;;
29344;SDS011;16339;48.748;2.222;2022-10-22T19:11:53;18.75;;;4.93;;
29344;SDS011;16339;48.748;2.222;2022-10-22T19:14:21;13.85;;;4.50;;
29344;SDS011;16339;48.748;2.222;2022-10-22T19:16:50;14.38;;;4.63;;
29344;SDS011;16339;48.748;2.222;2022-10-22T19:19:20;13.93;;;5.57;;
29344;SDS011;16339;48.748;2.222;2022-10-22T19:21:52;15.10;;;4.70;;
29344;SDS011;16339;48.748;2.222;2022-10-22T19:24:20;28.58;;;4.72;;
29344;SDS011;16339;48.748;2.222;2022-10-22T19:26:49;12.02;;;4.68;;
29344;SDS011;16339;48.748;2.222;2022-10-22T19:29:19;13.25;;;5.70;;
29344;SDS011;16339;48.748;2.222;2022-10-22T19:31:48;14.68;;;4.75;;
29344;SDS011;16339;48.748;2.222;2022-10-22T19:34:18;14.35;;;4.40;;
29344;SDS011;16339;48.748;2.222;2022-10-22T19:36:47;11.98;;;4.35;;
29344;SDS011;16339;48.748;2.222;2022-10-22T19:39:20;14.90;;;4.60;;
29344;SDS011;16339;48.748;2.222;2022-10-22T19:44:17;17.80;;;5.40;;
29344;SDS011;16339;48.748;2.222;2022-10-22T19:46:46;13.27;;;5.03;;
29344;SDS011;16339;48.748;2.222;2022-10-22T19:49:16;14.48;;;4.85;;
29344;SDS011;16339;48.748;2.222;2022-10-22T19:51:45;15.07;;;5.53;;
29344;SDS011;16339;48.748;2.222;2022-10-22T19:54:14;13.00;;;4.90;;
29344;SDS011;16339;48.748;2.222;2022-10-22T19:56:46;18.85;;;6.70;;
29344;SDS011;16339;48.748;2.222;2022-10-22T19:59:16;10.93;;;5.10;;
29344;SDS011;16339;48.748;2.222;2022-10-22T20:01:46;21.60;;;5.40;;
29344;SDS011;16339;48.748;2.222;2022-10-22T20:04:16;15.60;;;5.25;;
29344;SDS011;16339;48.748;2.222;2022-10-22T20:06:49;17.92;;;5.40;;
29344;SDS011;16339;48.748;2.222;2022-10-22T20:09:17;14.48;;;5.38;;
29344;SDS011;16339;48.748;2.222;2022-10-22T20:11:49;15.02;;;5.05;;
29344;SDS011;16339;48.748;2.222;2022-10-22T20:14:17;16.83;;;5.30;;
29344;SDS011;16339;48.748;2.222;2022-10-22T20:16:46;14.43;;;4.72;;
29344;SDS011;16339;48.748;2.222;2022-10-22T20:19:15;11.88;;;5.13;;
29344;SDS011;16339;48.748;2.222;2022-10-22T20:21:44;18.75;;;5.55;;
29344;SDS011;16339;48.748;2.222;2022-10-22T20:24:14;14.45;;;5.47;;
29344;SDS011;16339;48.748;2.222;2022-10-22T20:26:43;13.63;;;5.90;;
29344;SDS011;16339;48.748;2.222;2022-10-22T20:29:15;13.52;;;5.65;;
29344;SDS011;16339;48.748;2.222;2022-10-22T20:31:45;12.18;;;5.13;;
29344;SDS011;16339;48.748;2.222;2022-10-22T20:34:14;16.95;;;5.93;;
29344;SDS011;16339;48.748;2.222;2022-10-22T20:36:42;16.95;;;5.35;;
29344;SDS011;16339;48.748;2.222;2022-10-22T20:39:13;18.75;;;5.32;;
29344;SDS011;16339;48.748;2.222;2022-10-22T20:41:43;13.02;;;5.63;;
29344;SDS011;16339;48.748;2.222;2022-10-22T20:44:13;19.75;;;5.82;;
29344;SDS011;16339;48.748;2.222;2022-10-22T20:46:46;14.80;;;6.25;;
29344;SDS011;16339;48.748;2.222;2022-10-22T20:49:15;17.60;;;5.57;;
29344;SDS011;16339;48.748;2.222;2022-10-22T20:51:44;11.95;;;4.88;;
29344;SDS011;16339;48.748;2.222;2022-10-22T20:54:13;20.95;;;5.50;;
29344;SDS011;16339;48.748;2.222;2022-10-22T20:56:43;16.15;;;5.03;;
29344;SDS011;16339;48.748;2.222;2022-10-22T20:59:12;13.95;;;4.95;;
29344;SDS011;16339;48.748;2.222;2022-10-22T21:01:42;16.00;;;5.15;;
29344;SDS011;16339;48.748;2.222;2022-10-22T21:04:15;16.98;;;5.13;;
29344;SDS011;16339;48.748;2.222;2022-10-22T21:06:45;12.70;;;5.25;;
29344;SDS011;16339;48.748;2.222;2022-10-22T21:09:16;14.55;;;5.00;;
29344;SDS011;16339;48.748;2.222;2022-10-22T21:11:45;19.80;;;5.45;;
29344;SDS011;16339;48.748;2.222;2022-10-22T21:14:14;20.70;;;5.68;;
29344;SDS011;16339;48.748;2.222;2022-10-22T21:16:49;15.93;;;5.40;;
29344;SDS011;16339;48.748;2.222;2022-10-22T21:19:18;18.55;;;5.70;;
29344;SDS011;16339;48.748;2.222;2022-10-22T21:21:47;21.58;;;6.22;;
29344;SDS011;16339;48.748;2.222;2022-10-22T21:24:16;14.63;;;5.68;;
29344;SDS011;16339;48.748;2.222;2022-10-22T21:26:48;19.05;;;5.20;;
29344;SDS011;16339;48.748;2.222;2022-10-22T21:29:19;19.05;;;5.82;;
29344;SDS011;16339;48.748;2.222;2022-10-22T21:31:50;17.35;;;6.60;;